sensor_id;sensor_type;location;lat;lon;timestamp;temperature;humidity
76104;HTU21D;64831;44.870;37.336;2022-12-20T00:02:25;-1.79;71.04
76104;HTU21D;64831;44.870;37.336;2022-12-20T00:04:51;-1.76;71.07
76104;HTU21D;64831;44.870;37.336;2022-12-20T00:07:17;-1.79;71.06
76104;HTU21D;64831;44.870;37.336;2022-12-20T00:09:43;-1.75;71.07
76104;HTU21D;64831;44.870;37.336;2022-12-20T00:12:09;-1.78;71.03
76104;HTU21D;64831;44.870;37.336;2022-12-20T00:14:34;-1.75;71.03
76104;HTU21D;64831;44.870;37.336;2022-12-20T00:17:00;-1.75;70.97
76104;HTU21D;64831;44.870;37.336;2022-12-20T00:19:26;-1.75;70.99
76104;HTU21D;64831;44.870;37.336;2022-12-20T00:21:52;-1.75;71.00
76104;HTU21D;64831;44.870;37.336;2022-12-20T00:24:18;-1.74;70.97
76104;HTU21D;64831;44.870;37.336;2022-12-20T00:26:44;-1.74;70.95
76104;HTU21D;64831;44.870;37.336;2022-12-20T00:29:10;-1.72;70.89
76104;HTU21D;64831;44.870;37.336;2022-12-20T00:31:36;-1.77;70.90
76104;HTU21D;64831;44.870;37.336;2022-12-20T00:34:02;-1.78;70.95
76104;HTU21D;64831;44.870;37.336;2022-12-20T00:36:29;-1.79;70.97
76104;HTU21D;64831;44.870;37.336;2022-12-20T00:38:57;-1.78;70.98
76104;HTU21D;64831;44.870;37.336;2022-12-20T00:41:29;-1.78;70.96
76104;HTU21D;64831;44.870;37.336;2022-12-20T00:43:56;-1.78;70.97
76104;HTU21D;64831;44.870;37.336;2022-12-20T00:46:22;-1.83;71.00
76104;HTU21D;64831;44.870;37.336;2022-12-20T00:48:51;-1.80;71.00
76104;HTU21D;64831;44.870;37.336;2022-12-20T00:51:20;-1.80;71.00
76104;HTU21D;64831;44.870;37.336;2022-12-20T00:53:47;-1.82;70.98
76104;HTU21D;64831;44.870;37.336;2022-12-20T00:56:13;-1.82;70.97
76104;HTU21D;64831;44.870;37.336;2022-12-20T00:58:41;-1.79;70.97
76104;HTU21D;64831;44.870;37.336;2022-12-20T01:01:19;-1.82;70.95
76104;HTU21D;64831;44.870;37.336;2022-12-20T01:03:47;-1.80;70.96
76104;HTU21D;64831;44.870;37.336;2022-12-20T01:06:13;-1.83;70.98
76104;HTU21D;64831;44.870;37.336;2022-12-20T01:08:39;-1.79;70.94
76104;HTU21D;64831;44.870;37.336;2022-12-20T01:11:12;-1.82;70.93
76104;HTU21D;64831;44.870;37.336;2022-12-20T01:13:42;-1.79;70.92
76104;HTU21D;64831;44.870;37.336;2022-12-20T01:16:17;-1.79;70.88
76104;HTU21D;64831;44.870;37.336;2022-12-20T01:18:44;-1.83;70.90
76104;HTU21D;64831;44.870;37.336;2022-12-20T01:21:12;-1.80;70.90
76104;HTU21D;64831;44.870;37.336;2022-12-20T01:23:39;-1.83;70.92
76104;HTU21D;64831;44.870;37.336;2022-12-20T01:26:09;-1.83;70.95
76104;HTU21D;64831;44.870;37.336;2022-12-20T01:28:36;-1.83;70.90
76104;HTU21D;64831;44.870;37.336;2022-12-20T01:31:05;-1.85;70.90
76104;HTU21D;64831;44.870;37.336;2022-12-20T01:33:31;-1.90;71.00
76104;HTU21D;64831;44.870;37.336;2022-12-20T01:36:03;-1.93;71.07
76104;HTU21D;64831;44.870;37.336;2022-12-20T01:38:29;-1.95;71.19
76104;HTU21D;64831;44.870;37.336;2022-12-20T01:40:56;-1.92;71.22
76104;HTU21D;64831;44.870;37.336;2022-12-20T01:43:23;-1.90;71.17
76104;HTU21D;64831;44.870;37.336;2022-12-20T01:45:50;-1.92;71.16
76104;HTU21D;64831;44.870;37.336;2022-12-20T01:48:20;-1.91;71.11
76104;HTU21D;64831;44.870;37.336;2022-12-20T01:50:48;-1.89;71.08
76104;HTU21D;64831;44.870;37.336;2022-12-20T01:53:17;-1.89;71.09
76104;HTU21D;64831;44.870;37.336;2022-12-20T01:55:45;-1.89;71.06
76104;HTU21D;64831;44.870;37.336;2022-12-20T01:58:13;-1.90;71.04
76104;HTU21D;64831;44.870;37.336;2022-12-20T02:00:41;-1.88;71.06
76104;HTU21D;64831;44.870;37.336;2022-12-20T02:03:10;-1.90;71.05
76104;HTU21D;64831;44.870;37.336;2022-12-20T02:05:42;-1.92;71.06
76104;HTU21D;64831;44.870;37.336;2022-12-20T02:08:10;-1.94;71.13
76104;HTU21D;64831;44.870;37.336;2022-12-20T02:16:14;-1.91;71.11
76104;HTU21D;64831;44.870;37.336;2022-12-20T02:18:51;-1.93;71.11
76104;HTU21D;64831;44.870;37.336;2022-12-20T02:21:52;-1.91;71.07
76104;HTU21D;64831;44.870;37.336;2022-12-20T02:25:08;-1.92;71.05
76104;HTU21D;64831;44.870;37.336;2022-12-20T02:32:32;-1.98;71.03
76104;HTU21D;64831;44.870;37.336;2022-12-20T02:35:04;-2.02;71.16
76104;HTU21D;64831;44.870;37.336;2022-12-20T02:37:30;-2.05;71.22
76104;HTU21D;64831;44.870;37.336;2022-12-20T02:39:56;-2.05;71.20
76104;HTU21D;64831;44.870;37.336;2022-12-20T02:42:24;-2.08;71.18
76104;HTU21D;64831;44.870;37.336;2022-12-20T02:44:57;-2.08;71.16
76104;HTU21D;64831;44.870;37.336;2022-12-20T02:47:54;-2.09;71.16
76104;HTU21D;64831;44.870;37.336;2022-12-20T02:50:27;-2.13;71.16
76104;HTU21D;64831;44.870;37.336;2022-12-20T02:52:54;-2.10;71.18
76104;HTU21D;64831;44.870;37.336;2022-12-20T02:55:33;-2.08;71.17
76104;HTU21D;64831;44.870;37.336;2022-12-20T02:58:06;-2.10;71.13
76104;HTU21D;64831;44.870;37.336;2022-12-20T03:00:38;-2.12;71.14
76104;HTU21D;64831;44.870;37.336;2022-12-20T03:03:05;-2.13;71.13
76104;HTU21D;64831;44.870;37.336;2022-12-20T03:05:54;-2.12;71.14
76104;HTU21D;64831;44.870;37.336;2022-12-20T03:08:21;-2.14;71.13
76104;HTU21D;64831;44.870;37.336;2022-12-20T03:10:49;-2.13;71.15
76104;HTU21D;64831;44.870;37.336;2022-12-20T03:13:15;-2.14;71.16
76104;HTU21D;64831;44.870;37.336;2022-12-20T03:15:48;-2.15;71.19
76104;HTU21D;64831;44.870;37.336;2022-12-20T03:18:13;-2.16;71.19
76104;HTU21D;64831;44.870;37.336;2022-12-20T03:20:40;-2.15;71.13
76104;HTU21D;64831;44.870;37.336;2022-12-20T03:23:06;-2.17;71.12
76104;HTU21D;64831;44.870;37.336;2022-12-20T03:25:32;-2.18;71.10
76104;HTU21D;64831;44.870;37.336;2022-12-20T03:28:00;-2.20;71.13
76104;HTU21D;64831;44.870;37.336;2022-12-20T03:30:27;-2.22;71.18
76104;HTU21D;64831;44.870;37.336;2022-12-20T03:32:53;-2.22;71.13
76104;HTU21D;64831;44.870;37.336;2022-12-20T03:35:19;-2.21;71.14
76104;HTU21D;64831;44.870;37.336;2022-12-20T03:37:45;-2.24;71.17
76104;HTU21D;64831;44.870;37.336;2022-12-20T03:40:11;-2.21;71.20
76104;HTU21D;64831;44.870;37.336;2022-12-20T03:42:38;-2.24;71.29
76104;HTU21D;64831;44.870;37.336;2022-12-20T03:45:05;-2.22;71.18
76104;HTU21D;64831;44.870;37.336;2022-12-20T03:47:32;-2.23;71.19
76104;HTU21D;64831;44.870;37.336;2022-12-20T03:49:58;-2.19;71.21
76104;HTU21D;64831;44.870;37.336;2022-12-20T03:52:25;-2.19;71.19
76104;HTU21D;64831;44.870;37.336;2022-12-20T03:54:51;-2.17;71.11
76104;HTU21D;64831;44.870;37.336;2022-12-20T03:57:20;-2.14;71.02
76104;HTU21D;64831;44.870;37.336;2022-12-20T03:59:48;-2.13;71.02
76104;HTU21D;64831;44.870;37.336;2022-12-20T04:02:16;-2.09;70.97
76104;HTU21D;64831;44.870;37.336;2022-12-20T04:04:42;-2.08;70.93
76104;HTU21D;64831;44.870;37.336;2022-12-20T04:07:08;-2.05;70.89
76104;HTU21D;64831;44.870;37.336;2022-12-20T04:09:36;-2.02;70.78
76104;HTU21D;64831;44.870;37.336;2022-12-20T04:12:07;-2.00;70.74
76104;HTU21D;64831;44.870;37.336;2022-12-20T04:14:36;-1.94;70.61
76104;HTU21D;64831;44.870;37.336;2022-12-20T04:17:03;-1.93;70.49
76104;HTU21D;64831;44.870;37.336;2022-12-20T04:19:30;-1.88;70.39
76104;HTU21D;64831;44.870;37.336;2022-12-20T04:21:56;-1.90;70.32
76104;HTU21D;64831;44.870;37.336;2022-12-20T04:24:25;-1.89;70.29
76104;HTU21D;64831;44.870;37.336;2022-12-20T04:27:04;-1.89;70.19
76104;HTU21D;64831;44.870;37.336;2022-12-20T04:29:31;-1.90;70.10
76104;HTU21D;64831;44.870;37.336;2022-12-20T04:31:57;-1.89;69.92
76104;HTU21D;64831;44.870;37.336;2022-12-20T04:34:24;-1.91;69.87
76104;HTU21D;64831;44.870;37.336;2022-12-20T04:36:50;-1.97;70.03
76104;HTU21D;64831;44.870;37.336;2022-12-20T04:39:25;-2.03;70.03
76104;HTU21D;64831;44.870;37.336;2022-12-20T04:42:14;-2.07;70.08
76104;HTU21D;64831;44.870;37.336;2022-12-20T04:44:40;-2.09;70.13
76104;HTU21D;64831;44.870;37.336;2022-12-20T04:47:06;-2.17;70.25
76104;HTU21D;64831;44.870;37.336;2022-12-20T04:49:32;-2.18;70.26
76104;HTU21D;64831;44.870;37.336;2022-12-20T04:51:58;-2.21;70.31
76104;HTU21D;64831;44.870;37.336;2022-12-20T04:54:45;-2.22;70.37
76104;HTU21D;64831;44.870;37.336;2022-12-20T04:57:15;-2.26;70.43
76104;HTU21D;64831;44.870;37.336;2022-12-20T04:59:41;-2.27;70.45
76104;HTU21D;64831;44.870;37.336;2022-12-20T05:02:07;-2.28;70.46
76104;HTU21D;64831;44.870;37.336;2022-12-20T05:04:56;-2.32;70.52
76104;HTU21D;64831;44.870;37.336;2022-12-20T05:07:22;-2.34;70.56
76104;HTU21D;64831;44.870;37.336;2022-12-20T05:09:51;-2.35;70.61
76104;HTU21D;64831;44.870;37.336;2022-12-20T05:12:17;-2.36;70.70
76104;HTU21D;64831;44.870;37.336;2022-12-20T05:14:44;-2.38;70.86
76104;HTU21D;64831;44.870;37.336;2022-12-20T05:17:11;-2.36;70.89
76104;HTU21D;64831;44.870;37.336;2022-12-20T05:19:37;-2.36;70.97
76104;HTU21D;64831;44.870;37.336;2022-12-20T05:22:03;-2.31;70.93
76104;HTU21D;64831;44.870;37.336;2022-12-20T05:25:03;-2.31;70.97
76104;HTU21D;64831;44.870;37.336;2022-12-20T05:27:48;-2.27;71.10
76104;HTU21D;64831;44.870;37.336;2022-12-20T05:30:15;-2.01;72.76
76104;HTU21D;64831;44.870;37.336;2022-12-20T05:32:42;-1.35;73.38
76104;HTU21D;64831;44.870;37.336;2022-12-20T05:35:08;-0.64;72.76
76104;HTU21D;64831;44.870;37.336;2022-12-20T05:37:35;-0.32;69.92
76104;HTU21D;64831;44.870;37.336;2022-12-20T05:40:09;-0.44;68.48
76104;HTU21D;64831;44.870;37.336;2022-12-20T05:42:36;-0.66;68.16
76104;HTU21D;64831;44.870;37.336;2022-12-20T05:45:03;-0.83;68.21
76104;HTU21D;64831;44.870;37.336;2022-12-20T05:47:34;-0.95;68.23
76104;HTU21D;64831;44.870;37.336;2022-12-20T05:50:06;-1.02;68.25
76104;HTU21D;64831;44.870;37.336;2022-12-20T05:52:38;-0.91;69.65
76104;HTU21D;64831;44.870;37.336;2022-12-20T05:55:05;-0.32;71.19
76104;HTU21D;64831;44.870;37.336;2022-12-20T05:57:30;0.28;70.58
76104;HTU21D;64831;44.870;37.336;2022-12-20T05:59:56;1.22;70.88
76104;HTU21D;64831;44.870;37.336;2022-12-20T06:02:24;2.38;69.23
76104;HTU21D;64831;44.870;37.336;2022-12-20T06:04:57;3.45;67.36
76104;HTU21D;64831;44.870;37.336;2022-12-20T06:07:25;4.37;64.66
76104;HTU21D;64831;44.870;37.336;2022-12-20T06:09:57;5.27;62.61
76104;HTU21D;64831;44.870;37.336;2022-12-20T06:12:34;5.93;60.18
76104;HTU21D;64831;44.870;37.336;2022-12-20T06:15:00;6.46;58.93
76104;HTU21D;64831;44.870;37.336;2022-12-20T06:17:27;6.98;57.52
76104;HTU21D;64831;44.870;37.336;2022-12-20T06:19:53;7.52;56.29
76104;HTU21D;64831;44.870;37.336;2022-12-20T06:22:20;8.07;55.36
76104;HTU21D;64831;44.870;37.336;2022-12-20T06:24:50;8.59;53.68
76104;HTU21D;64831;44.870;37.336;2022-12-20T06:27:21;9.15;52.60
76104;HTU21D;64831;44.870;37.336;2022-12-20T06:29:56;9.54;51.80
76104;HTU21D;64831;44.870;37.336;2022-12-20T06:32:25;9.90;49.47
76104;HTU21D;64831;44.870;37.336;2022-12-20T06:34:52;10.30;48.95
76104;HTU21D;64831;44.870;37.336;2022-12-20T06:37:18;10.69;47.69
76104;HTU21D;64831;44.870;37.336;2022-12-20T06:39:44;11.05;46.25
76104;HTU21D;64831;44.870;37.336;2022-12-20T06:42:10;11.37;45.06
76104;HTU21D;64831;44.870;37.336;2022-12-20T06:44:38;11.73;44.65
76104;HTU21D;64831;44.870;37.336;2022-12-20T06:47:04;11.91;43.16
76104;HTU21D;64831;44.870;37.336;2022-12-20T06:49:30;12.02;42.05
76104;HTU21D;64831;44.870;37.336;2022-12-20T06:51:57;12.06;41.45
76104;HTU21D;64831;44.870;37.336;2022-12-20T06:54:43;12.04;40.81
76104;HTU21D;64831;44.870;37.336;2022-12-20T06:57:10;12.16;40.26
76104;HTU21D;64831;44.870;37.336;2022-12-20T06:59:37;12.25;39.73
76104;HTU21D;64831;44.870;37.336;2022-12-20T07:02:03;12.27;39.44
76104;HTU21D;64831;44.870;37.336;2022-12-20T07:04:29;12.20;38.43
76104;HTU21D;64831;44.870;37.336;2022-12-20T07:06:55;11.85;37.89
76104;HTU21D;64831;44.870;37.336;2022-12-20T07:09:22;11.42;37.90
76104;HTU21D;64831;44.870;37.336;2022-12-20T07:11:48;11.22;38.62
76104;HTU21D;64831;44.870;37.336;2022-12-20T07:14:14;11.20;38.48
76104;HTU21D;64831;44.870;37.336;2022-12-20T07:16:40;11.33;38.70
76104;HTU21D;64831;44.870;37.336;2022-12-20T07:19:11;11.44;38.12
76104;HTU21D;64831;44.870;37.336;2022-12-20T07:21:37;11.20;36.88
76104;HTU21D;64831;44.870;37.336;2022-12-20T07:24:03;10.88;37.05
76104;HTU21D;64831;44.870;37.336;2022-12-20T07:26:30;10.86;37.57
76104;HTU21D;64831;44.870;37.336;2022-12-20T07:28:56;10.86;37.24
76104;HTU21D;64831;44.870;37.336;2022-12-20T07:31:22;10.93;36.36
76104;HTU21D;64831;44.870;37.336;2022-12-20T07:33:48;10.97;35.93
76104;HTU21D;64831;44.870;37.336;2022-12-20T07:36:14;11.08;36.02
76104;HTU21D;64831;44.870;37.336;2022-12-20T07:38:41;11.10;35.88
76104;HTU21D;64831;44.870;37.336;2022-12-20T07:41:15;11.25;34.09
76104;HTU21D;64831;44.870;37.336;2022-12-20T07:43:42;11.17;34.28
76104;HTU21D;64831;44.870;37.336;2022-12-20T07:46:10;11.10;34.35
76104;HTU21D;64831;44.870;37.336;2022-12-20T07:48:37;11.43;35.33
76104;HTU21D;64831;44.870;37.336;2022-12-20T07:51:13;11.66;33.28
76104;HTU21D;64831;44.870;37.336;2022-12-20T13:28:49;3.62;46.93
76104;HTU21D;64831;44.870;37.336;2022-12-20T13:33:50;3.50;47.48
76104;HTU21D;64831;44.870;37.336;2022-12-20T13:44:46;3.15;48.37
76104;HTU21D;64831;44.870;37.336;2022-12-20T13:47:35;3.09;48.60
76104;HTU21D;64831;44.870;37.336;2022-12-20T13:50:22;3.00;48.81
76104;HTU21D;64831;44.870;37.336;2022-12-20T13:52:50;2.95;49.02
76104;HTU21D;64831;44.870;37.336;2022-12-20T13:55:26;2.89;49.19
76104;HTU21D;64831;44.870;37.336;2022-12-20T13:57:55;2.82;49.50
76104;HTU21D;64831;44.870;37.336;2022-12-20T14:00:23;2.73;49.73
76104;HTU21D;64831;44.870;37.336;2022-12-20T14:02:53;2.68;49.88
76104;HTU21D;64831;44.870;37.336;2022-12-20T14:05:25;2.62;50.21
76104;HTU21D;64831;44.870;37.336;2022-12-20T14:08:03;2.59;50.37
76104;HTU21D;64831;44.870;37.336;2022-12-20T14:10:32;2.50;50.72
76104;HTU21D;64831;44.870;37.336;2022-12-20T14:12:59;2.46;50.82
76104;HTU21D;64831;44.870;37.336;2022-12-20T14:15:30;2.42;50.85
76104;HTU21D;64831;44.870;37.336;2022-12-20T14:17:56;2.40;51.14
76104;HTU21D;64831;44.870;37.336;2022-12-20T14:20:32;2.38;51.54
76104;HTU21D;64831;44.870;37.336;2022-12-20T14:28:03;2.24;52.16
76104;HTU21D;64831;44.870;37.336;2022-12-20T14:30:33;2.14;52.83
76104;HTU21D;64831;44.870;37.336;2022-12-20T14:33:01;2.11;53.25
76104;HTU21D;64831;44.870;37.336;2022-12-20T14:35:27;2.09;53.20
76104;HTU21D;64831;44.870;37.336;2022-12-20T14:37:59;2.10;53.69
76104;HTU21D;64831;44.870;37.336;2022-12-20T14:40:27;2.11;54.42
76104;HTU21D;64831;44.870;37.336;2022-12-20T14:42:53;2.07;54.71
76104;HTU21D;64831;44.870;37.336;2022-12-20T14:45:25;2.06;55.15
76104;HTU21D;64831;44.870;37.336;2022-12-20T14:48:01;2.01;55.22
76104;HTU21D;64831;44.870;37.336;2022-12-20T14:50:33;1.95;55.63
76104;HTU21D;64831;44.870;37.336;2022-12-20T14:53:00;1.91;55.94
76104;HTU21D;64831;44.870;37.336;2022-12-20T14:55:38;1.87;55.80
76104;HTU21D;64831;44.870;37.336;2022-12-20T15:01:00;1.81;55.98
76104;HTU21D;64831;44.870;37.336;2022-12-20T15:03:27;1.78;55.89
76104;HTU21D;64831;44.870;37.336;2022-12-20T15:05:56;1.75;56.32
76104;HTU21D;64831;44.870;37.336;2022-12-20T15:13:32;1.72;56.18
76104;HTU21D;64831;44.870;37.336;2022-12-20T15:16:02;1.70;56.25
76104;HTU21D;64831;44.870;37.336;2022-12-20T15:18:29;1.71;56.25
76104;HTU21D;64831;44.870;37.336;2022-12-20T15:21:14;1.66;56.48
76104;HTU21D;64831;44.870;37.336;2022-12-20T15:23:51;1.67;56.39
76104;HTU21D;64831;44.870;37.336;2022-12-20T15:26:20;1.63;56.33
76104;HTU21D;64831;44.870;37.336;2022-12-20T15:28:46;1.55;56.69
76104;HTU21D;64831;44.870;37.336;2022-12-20T15:31:15;1.51;56.55
76104;HTU21D;64831;44.870;37.336;2022-12-20T15:33:43;1.48;56.58
76104;HTU21D;64831;44.870;37.336;2022-12-20T15:36:21;1.48;56.70
76104;HTU21D;64831;44.870;37.336;2022-12-20T15:38:48;1.45;56.77
76104;HTU21D;64831;44.870;37.336;2022-12-20T15:41:20;1.45;56.88
76104;HTU21D;64831;44.870;37.336;2022-12-20T15:43:50;1.45;57.03
76104;HTU21D;64831;44.870;37.336;2022-12-20T15:46:16;1.39;56.94
76104;HTU21D;64831;44.870;37.336;2022-12-20T15:48:42;1.34;56.95
76104;HTU21D;64831;44.870;37.336;2022-12-20T15:51:16;1.32;57.15
76104;HTU21D;64831;44.870;37.336;2022-12-20T15:53:43;1.29;57.18
76104;HTU21D;64831;44.870;37.336;2022-12-20T15:56:16;1.29;57.23
76104;HTU21D;64831;44.870;37.336;2022-12-20T15:58:44;1.28;57.24
76104;HTU21D;64831;44.870;37.336;2022-12-20T16:01:16;1.29;57.26
76104;HTU21D;64831;44.870;37.336;2022-12-20T16:03:43;1.31;57.33
76104;HTU21D;64831;44.870;37.336;2022-12-20T16:06:11;1.27;57.35
76104;HTU21D;64831;44.870;37.336;2022-12-20T16:08:38;1.25;57.78
76104;HTU21D;64831;44.870;37.336;2022-12-20T16:11:09;1.21;58.00
76104;HTU21D;64831;44.870;37.336;2022-12-20T16:13:39;1.18;58.36
76104;HTU21D;64831;44.870;37.336;2022-12-20T16:16:05;1.17;58.05
76104;HTU21D;64831;44.870;37.336;2022-12-20T16:18:31;1.20;58.20
76104;HTU21D;64831;44.870;37.336;2022-12-20T16:20:57;1.19;58.20
76104;HTU21D;64831;44.870;37.336;2022-12-20T16:23:22;1.16;58.04
76104;HTU21D;64831;44.870;37.336;2022-12-20T16:25:48;1.19;58.31
76104;HTU21D;64831;44.870;37.336;2022-12-20T16:28:16;1.19;58.29
76104;HTU21D;64831;44.870;37.336;2022-12-20T16:30:42;1.19;58.30
76104;HTU21D;64831;44.870;37.336;2022-12-20T16:33:17;1.20;58.33
76104;HTU21D;64831;44.870;37.336;2022-12-20T16:35:44;1.18;58.19
76104;HTU21D;64831;44.870;37.336;2022-12-20T16:38:10;1.17;58.15
76104;HTU21D;64831;44.870;37.336;2022-12-20T16:40:36;1.17;58.19
76104;HTU21D;64831;44.870;37.336;2022-12-20T16:43:02;1.17;58.18
76104;HTU21D;64831;44.870;37.336;2022-12-20T16:45:30;1.13;58.03
76104;HTU21D;64831;44.870;37.336;2022-12-20T16:47:57;1.09;57.96
76104;HTU21D;64831;44.870;37.336;2022-12-20T16:50:25;1.08;58.03
76104;HTU21D;64831;44.870;37.336;2022-12-20T16:52:52;1.08;58.06
76104;HTU21D;64831;44.870;37.336;2022-12-20T16:55:26;1.04;58.03
76104;HTU21D;64831;44.870;37.336;2022-12-20T16:57:52;1.04;58.15
76104;HTU21D;64831;44.870;37.336;2022-12-20T17:00:24;1.05;58.31
76104;HTU21D;64831;44.870;37.336;2022-12-20T17:02:51;1.04;58.37
76104;HTU21D;64831;44.870;37.336;2022-12-20T17:05:29;1.06;58.41
76104;HTU21D;64831;44.870;37.336;2022-12-20T17:07:55;1.07;58.49
76104;HTU21D;64831;44.870;37.336;2022-12-20T17:10:22;1.10;58.60
76104;HTU21D;64831;44.870;37.336;2022-12-20T17:12:48;1.09;58.58
76104;HTU21D;64831;44.870;37.336;2022-12-20T17:15:25;1.09;58.50
76104;HTU21D;64831;44.870;37.336;2022-12-20T17:17:52;1.09;58.56
76104;HTU21D;64831;44.870;37.336;2022-12-20T17:20:19;1.10;58.61
76104;HTU21D;64831;44.870;37.336;2022-12-20T17:22:51;1.11;58.58
76104;HTU21D;64831;44.870;37.336;2022-12-20T17:27:45;1.14;58.63
76104;HTU21D;64831;44.870;37.336;2022-12-20T17:30:11;1.11;58.55
76104;HTU21D;64831;44.870;37.336;2022-12-20T17:32:37;1.09;58.52
76104;HTU21D;64831;44.870;37.336;2022-12-20T17:35:03;1.09;58.51
76104;HTU21D;64831;44.870;37.336;2022-12-20T17:37:29;1.08;58.54
76104;HTU21D;64831;44.870;37.336;2022-12-20T17:39:55;1.09;58.54
76104;HTU21D;64831;44.870;37.336;2022-12-20T17:42:21;1.09;58.56
76104;HTU21D;64831;44.870;37.336;2022-12-20T17:44:47;1.07;58.51
76104;HTU21D;64831;44.870;37.336;2022-12-20T17:47:13;1.06;58.51
76104;HTU21D;64831;44.870;37.336;2022-12-20T17:49:41;1.06;58.53
76104;HTU21D;64831;44.870;37.336;2022-12-20T17:52:14;1.04;58.53
76104;HTU21D;64831;44.870;37.336;2022-12-20T17:54:40;1.02;58.55
76104;HTU21D;64831;44.870;37.336;2022-12-20T17:57:12;1.01;58.65
76104;HTU21D;64831;44.870;37.336;2022-12-20T17:59:38;1.02;58.71
76104;HTU21D;64831;44.870;37.336;2022-12-20T18:02:19;1.02;58.93
76104;HTU21D;64831;44.870;37.336;2022-12-20T18:04:45;1.02;59.10
76104;HTU21D;64831;44.870;37.336;2022-12-20T18:07:11;1.02;59.04
76104;HTU21D;64831;44.870;37.336;2022-12-20T18:09:37;1.03;59.26
76104;HTU21D;64831;44.870;37.336;2022-12-20T18:12:03;1.03;59.25
76104;HTU21D;64831;44.870;37.336;2022-12-20T18:14:32;1.03;59.22
76104;HTU21D;64831;44.870;37.336;2022-12-20T18:16:58;1.06;59.30
76104;HTU21D;64831;44.870;37.336;2022-12-20T18:19:24;1.05;59.32
76104;HTU21D;64831;44.870;37.336;2022-12-20T18:21:50;1.06;59.38
76104;HTU21D;64831;44.870;37.336;2022-12-20T18:24:16;1.06;59.35
76104;HTU21D;64831;44.870;37.336;2022-12-20T18:26:43;1.09;59.32
76104;HTU21D;64831;44.870;37.336;2022-12-20T18:29:10;1.08;59.32
76104;HTU21D;64831;44.870;37.336;2022-12-20T18:31:36;1.08;59.25
76104;HTU21D;64831;44.870;37.336;2022-12-20T18:34:02;1.10;59.31
76104;HTU21D;64831;44.870;37.336;2022-12-20T18:36:31;1.10;59.34
76104;HTU21D;64831;44.870;37.336;2022-12-20T18:39:00;1.07;59.55
76104;HTU21D;64831;44.870;37.336;2022-12-20T18:41:28;1.08;59.53
76104;HTU21D;64831;44.870;37.336;2022-12-20T18:44:00;1.09;59.54
76104;HTU21D;64831;44.870;37.336;2022-12-20T18:46:27;1.05;59.61
76104;HTU21D;64831;44.870;37.336;2022-12-20T18:48:57;1.06;59.59
76104;HTU21D;64831;44.870;37.336;2022-12-20T18:51:27;1.05;59.72
76104;HTU21D;64831;44.870;37.336;2022-12-20T18:53:55;1.03;59.61
76104;HTU21D;64831;44.870;37.336;2022-12-20T18:56:24;1.02;59.50
76104;HTU21D;64831;44.870;37.336;2022-12-20T18:58:51;0.99;59.42
76104;HTU21D;64831;44.870;37.336;2022-12-20T19:01:20;0.95;59.41
76104;HTU21D;64831;44.870;37.336;2022-12-20T19:03:46;0.93;59.43
76104;HTU21D;64831;44.870;37.336;2022-12-20T19:06:13;0.91;59.55
76104;HTU21D;64831;44.870;37.336;2022-12-20T19:08:39;0.88;59.87
76104;HTU21D;64831;44.870;37.336;2022-12-20T19:11:08;0.91;59.92
76104;HTU21D;64831;44.870;37.336;2022-12-20T19:13:35;0.94;60.14
76104;HTU21D;64831;44.870;37.336;2022-12-20T19:16:04;0.96;60.06
76104;HTU21D;64831;44.870;37.336;2022-12-20T19:18:31;0.96;60.11
76104;HTU21D;64831;44.870;37.336;2022-12-20T19:21:08;0.96;60.25
76104;HTU21D;64831;44.870;37.336;2022-12-20T19:23:37;0.98;60.14
76104;HTU21D;64831;44.870;37.336;2022-12-20T19:26:05;0.92;60.15
76104;HTU21D;64831;44.870;37.336;2022-12-20T19:28:32;0.94;60.26
76104;HTU21D;64831;44.870;37.336;2022-12-20T19:31:06;0.88;60.61
76104;HTU21D;64831;44.870;37.336;2022-12-20T19:33:38;0.86;60.55
76104;HTU21D;64831;44.870;37.336;2022-12-20T19:36:15;0.83;60.58
76104;HTU21D;64831;44.870;37.336;2022-12-20T19:38:50;0.74;60.78
76104;HTU21D;64831;44.870;37.336;2022-12-20T19:41:18;0.69;60.60
76104;HTU21D;64831;44.870;37.336;2022-12-20T19:43:46;0.64;60.71
76104;HTU21D;64831;44.870;37.336;2022-12-20T19:46:12;0.61;60.93
76104;HTU21D;64831;44.870;37.336;2022-12-20T19:48:39;0.52;60.93
76104;HTU21D;64831;44.870;37.336;2022-12-20T19:51:12;0.48;61.01
76104;HTU21D;64831;44.870;37.336;2022-12-20T19:53:39;0.36;61.03
76104;HTU21D;64831;44.870;37.336;2022-12-20T19:56:06;0.28;61.15
76104;HTU21D;64831;44.870;37.336;2022-12-20T19:58:36;0.18;61.46
76104;HTU21D;64831;44.870;37.336;2022-12-20T20:01:03;0.12;61.34
76104;HTU21D;64831;44.870;37.336;2022-12-20T20:03:29;0.05;61.60
76104;HTU21D;64831;44.870;37.336;2022-12-20T20:05:55;0.03;61.54
76104;HTU21D;64831;44.870;37.336;2022-12-20T20:08:21;-0.01;61.65
76104;HTU21D;64831;44.870;37.336;2022-12-20T20:10:54;-0.02;61.54
76104;HTU21D;64831;44.870;37.336;2022-12-20T20:13:22;-0.06;61.49
76104;HTU21D;64831;44.870;37.336;2022-12-20T20:15:49;-0.08;61.53
76104;HTU21D;64831;44.870;37.336;2022-12-20T20:18:15;-0.12;62.08
76104;HTU21D;64831;44.870;37.336;2022-12-20T20:20:41;-0.16;62.08
76104;HTU21D;64831;44.870;37.336;2022-12-20T20:23:07;-0.17;61.82
76104;HTU21D;64831;44.870;37.336;2022-12-20T20:25:33;-0.21;61.77
76104;HTU21D;64831;44.870;37.336;2022-12-20T20:28:03;-0.20;61.86
76104;HTU21D;64831;44.870;37.336;2022-12-20T20:30:30;-0.22;61.91
76104;HTU21D;64831;44.870;37.336;2022-12-20T20:32:56;-0.17;62.14
76104;HTU21D;64831;44.870;37.336;2022-12-20T20:35:22;-0.20;62.18
76104;HTU21D;64831;44.870;37.336;2022-12-20T20:37:48;-0.20;62.10
76104;HTU21D;64831;44.870;37.336;2022-12-20T20:40:14;-0.20;62.10
76104;HTU21D;64831;44.870;37.336;2022-12-20T20:42:40;-0.20;62.14
76104;HTU21D;64831;44.870;37.336;2022-12-20T20:45:06;-0.16;62.02
76104;HTU21D;64831;44.870;37.336;2022-12-20T20:47:32;-0.17;62.03
76104;HTU21D;64831;44.870;37.336;2022-12-20T20:49:58;-0.14;62.15
76104;HTU21D;64831;44.870;37.336;2022-12-20T20:52:24;-0.12;62.21
76104;HTU21D;64831;44.870;37.336;2022-12-20T20:54:50;-0.10;62.25
76104;HTU21D;64831;44.870;37.336;2022-12-20T20:57:16;-0.09;62.23
76104;HTU21D;64831;44.870;37.336;2022-12-20T20:59:42;-0.07;62.24
76104;HTU21D;64831;44.870;37.336;2022-12-20T21:02:11;-0.06;62.26
76104;HTU21D;64831;44.870;37.336;2022-12-20T21:04:38;-0.03;62.21
76104;HTU21D;64831;44.870;37.336;2022-12-20T21:07:05;-0.05;62.17
76104;HTU21D;64831;44.870;37.336;2022-12-20T21:09:31;-0.05;62.18
76104;HTU21D;64831;44.870;37.336;2022-12-20T21:11:57;-0.05;62.20
76104;HTU21D;64831;44.870;37.336;2022-12-20T21:14:23;-0.07;62.12
76104;HTU21D;64831;44.870;37.336;2022-12-20T21:16:48;-0.09;62.07
76104;HTU21D;64831;44.870;37.336;2022-12-20T21:19:14;-0.08;62.13
76104;HTU21D;64831;44.870;37.336;2022-12-20T21:21:40;-0.09;62.13
76104;HTU21D;64831;44.870;37.336;2022-12-20T21:24:06;-0.11;62.15
76104;HTU21D;64831;44.870;37.336;2022-12-20T21:26:32;-0.14;62.14
76104;HTU21D;64831;44.870;37.336;2022-12-20T21:28:59;-0.14;62.42
76104;HTU21D;64831;44.870;37.336;2022-12-20T21:31:25;-0.20;62.59